createdAt,value
2023-04-22T00:01:13.537Z,98428.63
2023-04-22T00:03:42.311Z,98435.22
2023-04-22T00:06:09.620Z,98460.03
2023-04-22T00:08:36.887Z,98462.28
2023-04-22T00:11:04.033Z,98473.22
2023-04-22T00:13:31.169Z,98481.50
2023-04-22T00:15:58.420Z,98486.22
2023-04-22T00:18:26.107Z,98500.88
2023-04-22T00:20:53.448Z,98508.09
2023-04-22T00:23:20.758Z,98510.19
2023-04-22T00:25:47.854Z,98541.13
2023-04-22T00:28:14.885Z,98535.13
2023-04-22T00:30:42.001Z,98543.41
2023-04-22T00:33:09.818Z,98551.63
2023-04-22T00:35:37.011Z,98553.69
2023-04-22T00:38:04.409Z,98562.16
2023-04-22T00:40:31.560Z,98577.44
2023-04-22T00:42:59.730Z,98594.09
2023-04-22T00:45:26.996Z,98593.88
2023-04-22T00:47:54.617Z,98611.00
2023-04-22T00:50:21.804Z,98618.41
2023-04-22T00:52:49.680Z,98627.28
2023-04-22T00:55:17.091Z,98627.50
2023-04-22T00:57:44.380Z,98625.84
2023-04-22T01:00:12.090Z,98633.25
2023-04-22T01:02:39.433Z,98634.94
2023-04-22T01:05:09.618Z,98632.25
2023-04-22T01:07:36.806Z,98624.19
2023-04-22T01:10:04.534Z,98620.22
2023-04-22T01:12:31.638Z,98621.25
2023-04-22T01:14:58.758Z,98619.34
2023-04-22T01:17:26.050Z,98617.50
2023-04-22T01:19:53.368Z,98615.00
2023-04-22T01:22:20.838Z,98611.69
2023-04-22T01:24:48.068Z,98615.41
2023-04-22T01:27:15.266Z,98606.34
2023-04-22T01:29:42.889Z,98603.00
2023-04-22T01:32:10.513Z,98595.97
2023-04-22T01:34:37.816Z,98573.63
2023-04-22T01:37:06.135Z,98579.47
2023-04-22T01:39:33.558Z,98566.19
2023-04-22T01:42:02.158Z,98565.44
2023-04-22T01:44:29.335Z,98547.81
2023-04-22T01:46:56.601Z,98541.28
2023-04-22T01:49:23.685Z,98527.06
2023-04-22T01:51:51.368Z,98516.69
2023-04-22T01:54:19.417Z,98503.47
2023-04-22T01:56:51.161Z,98499.72
2023-04-22T01:59:18.728Z,98494.78
2023-04-22T02:01:46.041Z,98499.31
2023-04-22T02:04:13.153Z,98480.69
2023-04-22T02:06:41.510Z,98474.13
2023-04-22T02:09:08.692Z,98471.63
2023-04-22T02:11:35.808Z,98470.00
2023-04-22T02:14:02.885Z,98453.47
2023-04-22T02:16:30.101Z,98437.78
2023-04-22T02:18:57.329Z,98455.53
2023-04-22T02:21:24.361Z,98438.16
2023-04-22T02:23:51.507Z,98438.81
2023-04-22T02:26:18.648Z,98437.78
2023-04-22T02:28:46.284Z,98430.09
2023-04-22T02:31:13.348Z,98418.53
2023-04-22T02:33:41.057Z,98414.97
2023-04-22T02:36:09.857Z,98421.75
2023-04-22T02:38:37.849Z,98423.19
2023-04-22T02:41:05.167Z,98439.66
2023-04-22T02:43:32.233Z,98438.00
2023-04-22T02:45:59.335Z,98440.69
2023-04-22T02:48:26.741Z,98447.47
2023-04-22T02:50:53.919Z,98452.81
2023-04-22T02:53:20.975Z,98456.53
2023-04-22T02:55:56.944Z,98464.56
2023-04-22T02:58:24.274Z,98455.47
2023-04-22T03:00:51.373Z,98464.31
2023-04-22T03:03:18.752Z,98472.16
2023-04-22T03:05:46.097Z,98478.34
2023-04-22T03:08:15.653Z,98474.66
2023-04-22T03:10:43.214Z,98475.03
2023-04-22T03:13:10.317Z,98470.72
2023-04-22T03:15:37.514Z,98464.06
2023-04-22T03:18:05.389Z,98479.13
2023-04-22T03:20:33.041Z,98479.31
2023-04-22T03:23:00.618Z,98494.56
2023-04-22T03:25:28.106Z,98513.31
2023-04-22T03:27:57.059Z,98526.13
2023-04-22T03:30:25.487Z,98538.00
2023-04-22T03:32:53.703Z,98530.72
2023-04-22T03:35:50.425Z,98527.22
2023-04-22T03:38:18.219Z,98550.03
2023-04-22T03:40:45.339Z,98547.75
2023-04-22T03:43:21.725Z,98558.47
2023-04-22T03:45:59.633Z,98553.88
2023-04-22T03:48:35.634Z,98571.59
2023-04-22T03:51:06.847Z,98583.34
2023-04-22T03:53:36.646Z,98596.09
2023-04-22T03:56:04.181Z,98605.16
2023-04-22T03:58:33.733Z,98600.56
2023-04-22T04:01:05.197Z,98603.25
2023-04-22T04:03:32.762Z,98601.94
2023-04-22T04:06:00.575Z,98597.34
2023-04-22T04:08:27.909Z,98596.25
2023-04-22T04:10:55.121Z,98617.50
2023-04-22T04:13:23.122Z,98614.16
2023-04-22T04:16:08.970Z,98599.28
2023-04-22T04:18:39.420Z,98526.81
2023-04-22T04:21:06.603Z,98529.66
2023-04-22T04:23:37.953Z,98531.72
2023-04-22T04:26:05.656Z,98540.31
2023-04-22T04:28:36.087Z,98557.66
2023-04-22T04:31:03.352Z,98547.72
2023-04-22T04:33:32.353Z,98550.56
2023-04-22T04:36:00.094Z,98546.88
2023-04-22T04:38:31.076Z,98545.66
2023-04-22T04:40:58.630Z,98548.72
2023-04-22T04:43:29.399Z,98561.34
2023-04-22T04:46:09.539Z,98563.53
2023-04-22T04:48:38.168Z,98582.31
2023-04-22T04:51:09.462Z,98586.97
2023-04-22T04:53:41.941Z,98615.53
2023-04-22T04:56:09.004Z,98597.53
2023-04-22T04:58:36.289Z,98582.25
2023-04-22T05:01:22.386Z,98495.13
2023-04-22T05:03:49.767Z,98502.94
2023-04-22T05:06:18.715Z,98508.13
2023-04-22T05:08:50.204Z,98493.16
2023-04-22T05:11:17.272Z,98487.53
2023-04-22T05:13:47.255Z,98514.47
2023-04-22T05:16:20.650Z,98558.34
2023-04-22T05:18:47.804Z,98552.56
2023-04-22T05:21:16.840Z,98544.53
2023-04-22T05:23:45.191Z,98568.44
2023-04-22T05:26:12.819Z,98577.47
2023-04-22T05:28:42.356Z,98552.03
2023-04-22T05:31:09.473Z,98489.13
2023-04-22T05:33:37.699Z,98453.53
2023-04-22T05:36:06.201Z,98477.31
2023-04-22T05:38:33.320Z,98458.09
2023-04-22T05:41:00.937Z,98450.63
2023-04-22T05:43:28.779Z,98449.31
2023-04-22T05:46:03.073Z,98439.53
2023-04-22T05:48:32.584Z,98443.19
2023-04-22T05:51:03.507Z,98423.41
2023-04-22T05:53:31.071Z,98440.84
2023-04-22T05:56:00.626Z,98356.88
2023-04-22T05:58:27.733Z,98335.94
2023-04-22T06:00:57.911Z,98261.19
2023-04-22T06:03:43.454Z,98272.13
2023-04-22T06:06:12.481Z,98224.28
2023-04-22T06:08:39.816Z,98225.44
2023-04-22T06:11:06.904Z,98257.72
2023-04-22T06:13:35.973Z,98207.78
2023-04-22T06:16:05.283Z,98234.50
2023-04-22T06:18:33.540Z,98120.84
2023-04-22T06:21:01.780Z,98033.63
2023-04-22T06:23:28.830Z,97956.19
2023-04-22T06:25:58.413Z,97972.06
2023-04-22T06:28:25.552Z,97957.56
2023-04-22T06:30:56.094Z,97957.13
2023-04-22T06:33:23.113Z,97940.34
2023-04-22T06:35:51.032Z,97852.97
2023-04-22T06:38:18.234Z,97837.56
2023-04-22T06:41:12.181Z,97810.88
2023-04-22T06:43:43.402Z,97779.16
2023-04-22T06:46:19.363Z,97736.22
2023-04-22T06:48:49.230Z,97700.78
2023-04-22T06:51:25.194Z,97688.09
2023-04-22T06:53:52.284Z,97635.78
2023-04-22T06:56:19.368Z,97535.47
2023-04-22T06:58:46.478Z,97553.16
2023-04-22T07:01:13.520Z,97481.72
2023-04-22T07:03:41.656Z,97409.56
2023-04-22T07:06:11.997Z,97357.41
2023-04-22T07:08:39.580Z,97259.09
2023-04-22T07:11:06.770Z,97136.56
2023-04-22T07:13:40.707Z,97102.97
2023-04-22T07:16:07.930Z,97091.69
2023-04-22T07:18:36.062Z,97036.19
2023-04-22T07:21:03.138Z,96967.41
2023-04-22T07:23:30.247Z,96877.31
2023-04-22T07:25:57.400Z,96823.22
2023-04-22T07:28:24.501Z,96835.31
2023-04-22T07:30:51.551Z,96757.72
2023-04-22T07:33:18.577Z,96635.81
2023-04-22T07:35:45.673Z,96668.13
2023-04-22T07:38:14.542Z,96614.88
2023-04-22T07:40:41.802Z,96452.41
2023-04-22T07:43:08.903Z,96491.16
2023-04-22T07:45:36.091Z,96436.00
2023-04-22T07:48:04.141Z,96392.78
2023-04-22T07:50:31.220Z,96301.38
2023-04-22T07:52:58.311Z,96352.22
2023-04-22T07:55:25.370Z,96249.16
2023-04-22T07:57:52.404Z,96205.31
2023-04-22T08:00:19.443Z,96140.56
2023-04-22T08:02:47.498Z,96160.34
2023-04-22T08:05:14.692Z,96175.38
2023-04-22T08:07:42.122Z,96186.47
2023-04-22T08:10:09.425Z,96085.72
2023-04-22T08:12:37.016Z,95997.31
2023-04-22T08:15:04.314Z,95892.34
2023-04-22T08:17:31.388Z,95897.94
2023-04-22T08:19:58.416Z,95886.19
2023-04-22T08:22:25.511Z,95921.00
2023-04-22T08:24:52.563Z,95807.41
2023-04-22T08:27:21.346Z,95753.34
2023-04-22T08:29:48.425Z,95734.97
2023-04-22T08:32:15.733Z,95632.19
2023-04-22T08:34:43.970Z,95614.22
2023-04-22T08:37:11.392Z,95612.19
2023-04-22T08:39:38.656Z,95591.44
2023-04-22T08:42:06.006Z,95595.72
2023-04-22T08:44:34.994Z,95563.41
2023-04-22T08:47:03.305Z,95503.34
2023-04-22T08:49:30.613Z,95504.03
2023-04-22T08:51:57.678Z,95380.09
2023-04-22T08:54:24.765Z,95462.34
2023-04-22T08:56:52.217Z,95475.00
2023-04-22T08:59:20.458Z,95459.34
2023-04-22T09:01:49.775Z,95413.47
2023-04-22T09:04:18.858Z,95373.34
2023-04-22T09:06:46.045Z,95426.75
2023-04-22T09:09:14.263Z,95331.63
2023-04-22T09:11:41.316Z,95394.69
2023-04-22T09:14:08.384Z,95324.94
2023-04-22T09:16:41.396Z,95320.31
2023-04-22T09:19:11.703Z,95306.03
2023-04-22T09:21:39.532Z,95303.25
2023-04-22T09:24:10.869Z,95323.69
2023-04-22T09:26:42.062Z,95299.81
2023-04-22T09:29:13.611Z,95260.09
2023-04-22T09:31:41.002Z,95314.41
2023-04-22T09:34:08.674Z,95318.53
2023-04-22T09:36:37.603Z,95300.59
2023-04-22T09:39:07.435Z,95292.63
2023-04-22T09:41:36.627Z,95278.97
2023-04-22T09:44:04.423Z,95294.25
2023-04-22T09:46:31.867Z,95286.59
2023-04-22T09:48:59.535Z,95299.00
2023-04-22T09:51:30.642Z,95296.69
2023-04-22T09:54:05.128Z,95323.03
2023-04-22T09:57:13.624Z,95331.56
2023-04-22T09:59:40.797Z,95331.06
2023-04-22T10:02:09.494Z,95350.56
2023-04-22T10:04:36.776Z,95342.53
2023-04-22T10:07:03.882Z,95325.34
2023-04-22T10:09:30.974Z,95332.63
2023-04-22T10:11:59.114Z,95337.13
2023-04-22T10:14:26.244Z,95337.34
2023-04-22T10:16:56.445Z,95305.63
2023-04-22T10:19:24.524Z,95277.94
2023-04-22T10:21:57.100Z,95300.97
2023-04-22T10:24:26.318Z,95311.78
2023-04-22T10:26:59.895Z,95231.34
2023-04-22T10:29:34.982Z,95202.41
2023-04-22T10:32:06.094Z,95203.56
2023-04-22T10:34:33.520Z,95166.47
2023-04-22T10:37:06.595Z,95174.16
2023-04-22T10:39:33.705Z,95177.34
2023-04-22T10:42:03.512Z,95172.78
2023-04-22T10:44:45.151Z,95154.53
2023-04-22T10:47:12.423Z,95088.28
2023-04-22T10:49:39.766Z,95091.63
2023-04-22T10:52:08.726Z,95082.59
2023-04-22T10:54:56.092Z,95111.22
2023-04-22T10:57:23.292Z,95133.28
2023-04-22T10:59:54.448Z,95162.44
2023-04-22T11:02:22.291Z,95171.16
2023-04-22T11:04:49.761Z,95192.97
2023-04-22T11:07:22.855Z,95216.53
2023-04-22T11:09:50.781Z,95230.97
2023-04-22T11:12:39.372Z,95231.16
2023-04-22T11:15:10.523Z,95204.00
2023-04-22T11:17:38.635Z,95221.16
2023-04-22T11:20:07.148Z,95219.72
2023-04-22T11:22:53.517Z,95241.91
2023-04-22T11:25:20.926Z,95226.06
2023-04-22T11:27:48.096Z,95215.81
2023-04-22T11:30:19.375Z,95233.97
2023-04-22T11:32:47.617Z,95229.81
2023-04-22T11:35:15.874Z,95257.94
2023-04-22T11:37:44.186Z,95234.69
2023-04-22T11:42:42.162Z,95171.16
2023-04-22T11:45:09.581Z,95145.28
2023-04-22T11:47:36.705Z,95136.31
2023-04-22T11:50:06.995Z,95118.09
2023-04-22T11:52:45.266Z,95131.44
2023-04-22T11:55:13.138Z,95084.00
2023-04-22T11:57:40.992Z,95081.63
2023-04-22T12:00:10.856Z,95049.88
2023-04-22T12:02:38.131Z,95038.50
2023-04-22T12:05:09.056Z,95002.28
2023-04-22T12:07:36.333Z,94967.59
2023-04-22T12:10:05.624Z,94951.81
2023-04-22T12:12:35.471Z,94920.66
2023-04-22T12:15:13.785Z,94874.00
2023-04-22T12:17:44.390Z,94828.59
2023-04-22T12:20:13.094Z,94852.47
2023-04-22T12:22:40.279Z,94862.09
2023-04-22T12:25:08.999Z,94872.84
2023-04-22T12:27:36.872Z,94914.84
2023-04-22T12:30:04.302Z,94992.56
2023-04-22T12:32:31.992Z,95069.72
2023-04-22T12:34:59.043Z,95100.38
2023-04-22T12:37:26.881Z,95132.16
2023-04-22T12:39:53.937Z,95142.72
2023-04-22T12:42:21.005Z,95149.78
2023-04-22T12:44:48.072Z,95167.06
2023-04-22T12:47:17.930Z,95182.81
2023-04-22T12:49:47.270Z,95188.13
2023-04-22T12:52:14.576Z,95197.88
2023-04-22T12:54:41.658Z,95205.34
2023-04-22T12:57:08.779Z,95216.75
2023-04-22T12:59:35.969Z,95233.38
2023-04-22T13:02:03.070Z,95227.06
2023-04-22T13:04:30.199Z,95230.09
2023-04-22T13:06:57.413Z,95224.81
2023-04-22T13:09:25.577Z,95231.25
2023-04-22T13:11:52.932Z,95212.50
2023-04-22T13:14:19.958Z,95222.72
2023-04-22T13:16:47.081Z,95206.69
2023-04-22T13:19:14.204Z,95211.53
2023-04-22T13:21:41.556Z,95197.34
2023-04-22T13:24:09.024Z,95187.66
2023-04-22T13:26:36.531Z,95181.84
2023-04-22T13:29:03.625Z,95174.50
2023-04-22T13:31:30.760Z,95167.84
2023-04-22T13:33:57.888Z,95165.91
2023-04-22T13:36:26.189Z,95157.50
2023-04-22T13:38:53.286Z,95146.13
2023-04-22T13:41:20.475Z,95146.91
2023-04-22T13:43:51.830Z,95147.13
2023-04-22T13:46:19.085Z,95132.69
2023-04-22T13:48:46.383Z,95132.97
2023-04-22T13:51:13.426Z,95125.53
2023-04-22T13:53:40.518Z,95115.22
2023-04-22T13:56:07.568Z,95117.31
2023-04-22T13:58:34.654Z,95109.84
2023-04-22T14:01:01.761Z,95119.56
2023-04-22T14:03:31.209Z,95114.84
2023-04-22T14:05:58.421Z,95113.50
2023-04-22T14:08:25.455Z,95116.69
2023-04-22T14:10:52.719Z,95116.22
2023-04-22T14:13:21.211Z,95117.72
2023-04-22T14:15:50.413Z,95124.16
2023-04-22T14:18:17.507Z,95129.28
2023-04-22T14:20:45.217Z,95128.78
2023-04-22T14:23:12.324Z,95128.28
2023-04-22T14:25:39.416Z,95121.94
2023-04-22T14:28:06.464Z,95126.19
2023-04-22T14:30:33.612Z,95129.28
2023-04-22T14:33:00.988Z,95125.19
2023-04-22T14:35:28.063Z,95128.69
2023-04-22T14:37:55.133Z,95127.50
2023-04-22T14:40:25.889Z,95123.63
2023-04-22T14:42:53.355Z,95121.25
2023-04-22T14:45:21.793Z,95130.13
2023-04-22T14:47:48.867Z,95132.50
2023-04-22T14:50:16.117Z,95139.97
2023-04-22T14:52:43.660Z,95147.63
2023-04-22T14:55:21.843Z,95155.00
2023-04-22T14:57:50.775Z,95147.97
2023-04-22T15:00:17.925Z,95161.75
2023-04-22T15:02:45.366Z,95159.81
2023-04-22T15:05:12.583Z,95165.94
2023-04-22T15:07:39.697Z,95168.19
2023-04-22T15:10:07.031Z,95171.50
2023-04-22T15:12:34.133Z,95167.97
2023-04-22T15:15:01.205Z,95161.66
2023-04-22T15:17:30.550Z,95169.69
2023-04-22T15:19:57.926Z,95168.53
2023-04-22T15:22:25.379Z,95176.06
2023-04-22T15:24:52.608Z,95175.28
2023-04-22T15:27:19.707Z,95179.16
2023-04-22T15:29:47.411Z,95173.94
2023-04-22T15:32:14.460Z,95179.38
2023-04-22T15:34:41.510Z,95178.13
2023-04-22T15:37:08.596Z,95180.06
2023-04-22T15:39:35.636Z,95178.03
2023-04-22T15:42:02.932Z,95174.31
2023-04-22T15:44:30.524Z,95169.44
2023-04-22T15:46:59.426Z,95175.13
2023-04-22T15:49:26.692Z,95175.78
2023-04-22T15:51:53.868Z,95178.50
2023-04-22T15:54:21.226Z,95170.81
2023-04-22T15:56:48.358Z,95172.38
2023-04-22T15:59:15.671Z,95170.44
2023-04-22T16:01:45.225Z,95163.88
2023-04-22T16:04:13.458Z,95169.66
2023-04-22T16:06:40.756Z,95168.16
2023-04-22T16:09:07.837Z,95172.63
2023-04-22T16:11:34.903Z,95176.00
2023-04-22T16:14:01.993Z,95174.19
2023-04-22T16:16:29.207Z,95184.03
2023-04-22T16:18:56.376Z,95184.94
2023-04-22T16:21:23.822Z,95190.25
2023-04-22T16:23:50.836Z,95185.69
2023-04-22T16:26:17.943Z,95187.69
2023-04-22T16:28:46.632Z,95179.75
2023-04-22T16:31:13.831Z,95177.25
2023-04-22T16:33:41.075Z,95170.44
2023-04-22T16:36:08.955Z,95177.22
2023-04-22T16:38:36.054Z,95179.94
2023-04-22T16:41:03.845Z,95174.84
2023-04-22T16:43:31.011Z,95180.16
2023-04-22T16:45:58.165Z,95179.25
2023-04-22T16:48:25.225Z,95183.75
2023-04-22T16:50:52.706Z,95171.28
2023-04-22T16:53:19.829Z,95178.06
2023-04-22T16:55:46.934Z,95178.75
2023-04-22T16:58:14.036Z,95182.59
2023-04-22T17:00:41.162Z,95181.66
2023-04-22T17:03:08.296Z,95184.47
2023-04-22T17:05:35.531Z,95177.06
2023-04-22T17:08:02.631Z,95178.56
2023-04-22T17:10:29.826Z,95174.34
2023-04-22T17:12:56.963Z,95165.94
2023-04-22T17:15:24.177Z,95163.22
2023-04-22T17:17:51.315Z,95160.97
2023-04-22T17:20:18.427Z,95164.34
2023-04-22T17:22:45.936Z,95158.44
2023-04-22T17:25:12.996Z,95158.78
2023-04-22T17:27:40.080Z,95154.00
2023-04-22T17:30:07.589Z,95160.56
2023-04-22T17:32:34.735Z,95151.00
2023-04-22T17:35:02.725Z,95151.38
2023-04-22T17:37:29.954Z,95148.84
2023-04-22T17:39:57.089Z,95144.53
2023-04-22T17:42:32.206Z,95139.78
2023-04-22T17:45:06.691Z,95135.53
2023-04-22T17:47:33.802Z,95128.38
2023-04-22T17:50:00.886Z,95128.22
2023-04-22T17:52:28.009Z,95123.16
2023-04-22T17:54:55.073Z,95124.94
2023-04-22T17:57:22.271Z,95130.56
2023-04-22T17:59:49.370Z,95127.06
2023-04-22T18:02:16.548Z,95123.75
2023-04-22T18:04:43.821Z,95120.41
2023-04-22T18:07:11.017Z,95116.63
2023-04-22T18:09:38.268Z,95113.00
2023-04-22T18:12:05.741Z,95101.69
2023-04-22T18:14:32.791Z,95097.91
2023-04-22T18:17:00.269Z,95113.16
2023-04-22T18:19:27.475Z,95130.09
2023-04-22T18:22:00.088Z,95132.03
2023-04-22T18:24:27.940Z,95141.00
2023-04-22T18:26:55.078Z,95171.34
2023-04-22T18:29:22.114Z,95192.41
2023-04-22T18:31:49.335Z,95206.47
2023-04-22T18:34:16.429Z,95202.31
2023-04-22T18:36:43.563Z,95192.59
2023-04-22T18:39:10.811Z,95188.31
2023-04-22T18:41:39.482Z,95167.44
2023-04-22T18:44:06.642Z,95163.47
2023-04-22T18:46:33.749Z,95151.66
2023-04-22T18:49:01.087Z,95132.50
2023-04-22T18:51:29.781Z,95126.94
2023-04-22T18:53:57.277Z,95122.63
2023-04-22T18:56:24.462Z,95099.34
2023-04-22T18:58:51.537Z,95047.38
2023-04-22T19:01:18.722Z,94986.81
2023-04-22T19:06:13.563Z,94930.56
2023-04-22T19:08:40.642Z,94897.66
2023-04-22T19:11:07.962Z,94884.31
2023-04-22T19:13:35.089Z,94860.56
2023-04-22T19:16:02.241Z,94864.19
2023-04-22T19:18:29.385Z,94877.41
2023-04-22T19:20:56.532Z,94891.16
2023-04-22T19:23:23.673Z,94881.78
2023-04-22T19:25:51.551Z,94881.94
2023-04-22T19:28:18.612Z,94905.03
2023-04-22T19:30:46.240Z,94914.28
2023-04-22T19:33:13.297Z,94911.13
2023-04-22T19:35:40.341Z,94915.53
2023-04-22T19:38:07.498Z,94911.25
2023-04-22T19:40:34.599Z,94920.84
2023-04-22T19:43:01.713Z,94917.78
2023-04-22T19:45:29.915Z,94933.22
2023-04-22T19:47:57.204Z,94932.00
2023-04-22T19:50:24.407Z,94941.72
2023-04-22T19:52:57.356Z,94952.69
2023-04-22T19:55:24.808Z,94973.25
2023-04-22T19:57:52.153Z,94998.59
2023-04-22T20:00:19.452Z,95027.13
2023-04-22T20:02:46.682Z,95047.97
2023-04-22T20:05:14.212Z,95078.09
2023-04-22T20:07:42.641Z,95108.53
2023-04-22T20:10:09.990Z,95125.56
2023-04-22T20:12:37.281Z,95045.63
2023-04-22T20:15:05.672Z,95159.47
2023-04-22T20:17:35.839Z,95265.53
2023-04-22T20:20:06.812Z,95418.78
2023-04-22T20:22:34.834Z,95541.72
2023-04-22T20:25:06.418Z,95576.81
2023-04-22T20:27:34.654Z,95164.00
2023-04-22T20:30:01.847Z,94949.69
2023-04-22T20:32:29.425Z,94951.44
2023-04-22T20:34:56.993Z,94931.84
2023-04-22T20:37:25.009Z,94929.63
2023-04-22T20:39:52.680Z,94892.75
2023-04-22T20:42:21.817Z,94908.50
2023-04-22T20:44:48.863Z,94884.63
2023-04-22T20:47:19.474Z,94959.84
2023-04-22T20:49:46.511Z,95059.28
2023-04-22T20:52:13.649Z,95160.44
2023-04-22T20:54:41.158Z,95266.69
2023-04-22T20:57:08.332Z,95387.47
2023-04-22T20:59:35.678Z,95502.56
2023-04-22T21:02:04.228Z,95613.94
2023-04-22T21:04:32.013Z,95745.19
2023-04-22T21:07:00.996Z,95846.38
2023-04-22T21:09:28.162Z,95936.88
2023-04-22T21:11:55.338Z,96038.34
2023-04-22T21:14:26.149Z,96154.31
2023-04-22T21:16:57.775Z,96204.81
2023-04-22T21:19:25.268Z,96280.81
2023-04-22T21:21:53.100Z,96339.84
2023-04-22T21:24:21.084Z,96422.88
2023-04-22T21:26:48.681Z,96524.88
2023-04-22T21:29:16.537Z,96663.38
2023-04-22T21:31:51.515Z,96757.75
2023-04-22T21:34:24.836Z,96823.22
2023-04-22T21:36:51.990Z,96848.66
2023-04-22T21:39:19.062Z,96940.03
2023-04-22T21:41:46.199Z,97051.78
2023-04-22T21:44:13.687Z,97208.63
2023-04-22T21:46:40.817Z,97265.75
2023-04-22T21:49:08.042Z,97248.75
2023-04-22T21:51:35.186Z,97249.81
2023-04-22T21:54:02.374Z,97255.47
2023-04-22T21:56:31.325Z,97284.34
2023-04-22T21:58:58.448Z,97390.34
2023-04-22T22:01:26.212Z,97420.88
2023-04-22T22:03:53.638Z,97446.28
2023-04-22T22:06:20.746Z,97456.03
2023-04-22T22:08:47.846Z,97465.06
2023-04-22T22:11:27.478Z,97497.19
2023-04-22T22:13:57.648Z,97533.56
2023-04-22T22:16:25.587Z,97558.50
2023-04-22T22:18:52.845Z,97559.22
2023-04-22T22:21:19.953Z,97559.56
2023-04-22T22:23:47.171Z,97560.06
2023-04-22T22:26:14.228Z,97571.91
2023-04-22T22:28:41.276Z,97575.13
2023-04-22T22:31:08.366Z,97568.09
2023-04-22T22:33:35.457Z,97565.16
2023-04-22T22:36:02.552Z,97568.69
2023-04-22T22:38:29.564Z,97568.69
2023-04-22T22:40:56.631Z,97551.88
2023-04-22T22:43:23.673Z,97548.84
2023-04-22T22:45:50.873Z,97549.91
2023-04-22T22:48:18.102Z,97536.69
2023-04-22T22:50:46.429Z,97536.69
2023-04-22T22:53:13.553Z,97542.09
2023-04-22T22:55:40.736Z,97542.31
2023-04-22T22:58:07.793Z,97558.78
2023-04-22T23:00:34.922Z,97579.50
2023-04-22T23:03:02.120Z,97578.66
2023-04-22T23:05:29.309Z,97581.84
2023-04-22T23:07:56.314Z,97582.59
2023-04-22T23:10:23.434Z,97583.09
2023-04-22T23:12:50.593Z,97578.25
2023-04-22T23:15:17.631Z,97571.56
2023-04-22T23:17:44.850Z,97561.25
2023-04-22T23:20:12.241Z,97574.50
2023-04-22T23:22:40.558Z,97569.09
2023-04-22T23:25:08.487Z,97589.56
2023-04-22T23:27:35.994Z,97600.38
2023-04-22T23:30:04.531Z,97606.56
2023-04-22T23:32:32.485Z,97607.38
2023-04-22T23:35:00.644Z,97583.09
2023-04-22T23:37:28.149Z,97573.59
2023-04-22T23:39:55.228Z,97595.41
2023-04-22T23:42:22.368Z,97566.53
2023-04-22T23:44:49.665Z,97567.03
2023-04-22T23:47:16.978Z,97565.38
2023-04-22T23:49:44.250Z,97557.28
2023-04-22T23:52:12.959Z,97545.09
2023-04-22T23:54:40.994Z,97559.09
2023-04-22T23:57:08.771Z,97567.41
2023-04-22T23:59:36.054Z,97605.22
